createdAt,value
2016-08-27T04:01:11.731Z,0
2016-08-27T04:01:37.381Z,0
2016-08-27T04:02:02.921Z,0
2016-08-27T04:02:28.469Z,0
2016-08-27T04:02:54.036Z,0
2016-08-27T04:03:19.695Z,0
2016-08-27T04:03:45.257Z,0
2016-08-27T04:04:10.842Z,0
2016-08-27T04:04:36.442Z,0
2016-08-27T04:05:02.014Z,0
2016-08-27T04:05:27.580Z,0
2016-08-27T04:05:53.148Z,0
2016-08-27T04:06:18.714Z,0
2016-08-27T04:06:44.311Z,0
2016-08-27T04:07:09.877Z,0
2016-08-27T04:07:35.462Z,0
2016-08-27T04:08:01.156Z,0
2016-08-27T04:08:26.712Z,0
2016-08-27T04:08:52.280Z,0
2016-08-27T04:09:17.865Z,0
2016-08-27T04:09:43.420Z,0
2016-08-27T04:10:08.991Z,0
2016-08-27T04:10:34.537Z,0
2016-08-27T04:11:00.105Z,0
2016-08-27T04:11:25.679Z,0
2016-08-27T04:11:51.252Z,0
2016-08-27T04:12:17.009Z,0
2016-08-27T04:12:42.568Z,0
2016-08-27T04:13:08.144Z,0
2016-08-27T04:13:33.813Z,0
2016-08-27T04:13:59.376Z,0
2016-08-27T04:14:24.956Z,0
2016-08-27T04:14:50.527Z,0
2016-08-27T04:15:16.109Z,0
2016-08-27T04:15:41.696Z,0
2016-08-27T04:16:07.295Z,0
2016-08-27T04:16:32.878Z,0
2016-08-27T04:16:58.442Z,0
2016-08-27T04:17:24.026Z,0
2016-08-27T04:17:49.601Z,0
2016-08-27T04:18:15.150Z,0
2016-08-27T04:18:40.715Z,0
2016-08-27T04:19:06.297Z,0
2016-08-27T04:19:31.864Z,0
2016-08-27T04:19:57.512Z,0
2016-08-27T04:20:23.078Z,0
2016-08-27T04:20:48.654Z,0
2016-08-27T04:21:14.289Z,0
2016-08-27T04:21:39.870Z,0
2016-08-27T04:22:05.438Z,0
2016-08-27T04:22:31.050Z,0
2016-08-27T04:22:56.622Z,0
2016-08-27T04:23:22.201Z,0
2016-08-27T04:23:47.817Z,0
2016-08-27T04:24:13.477Z,0
2016-08-27T04:24:39.042Z,0
2016-08-27T04:25:04.610Z,0
2016-08-27T04:25:30.207Z,0
2016-08-27T04:25:55.788Z,0
2016-08-27T04:26:21.339Z,0
2016-08-27T04:26:46.920Z,0
2016-08-27T04:27:12.478Z,0
2016-08-27T04:27:38.096Z,0
2016-08-27T04:28:03.677Z,0
2016-08-27T04:28:29.257Z,0
2016-08-27T04:28:54.848Z,0
2016-08-27T04:29:20.446Z,0
2016-08-27T04:29:46.017Z,0
2016-08-27T04:30:11.585Z,0
2016-08-27T04:30:37.230Z,0
2016-08-27T04:31:02.776Z,0
2016-08-27T04:31:28.336Z,0
2016-08-27T04:31:53.902Z,0
2016-08-27T04:33:17.554Z,0
2016-08-27T04:33:43.149Z,0
2016-08-27T04:34:08.703Z,0
2016-08-27T04:34:34.268Z,0
2016-08-27T04:34:59.836Z,0
2016-08-27T04:35:25.470Z,0
2016-08-27T04:35:51.113Z,0
2016-08-27T04:36:16.696Z,0
2016-08-27T04:36:42.256Z,0
2016-08-27T04:37:07.842Z,0
2016-08-27T04:37:33.399Z,0
2016-08-27T04:37:59.060Z,0
2016-08-27T04:38:24.627Z,0
2016-08-27T04:38:50.212Z,0
2016-08-27T04:39:15.781Z,0
2016-08-27T04:39:41.489Z,0
2016-08-27T04:40:07.047Z,0
2016-08-27T04:40:32.592Z,0
2016-08-27T04:40:58.327Z,0
2016-08-27T04:41:23.906Z,0
2016-08-27T04:41:49.479Z,0
2016-08-27T04:42:15.028Z,0
2016-08-27T04:42:40.593Z,0
2016-08-27T04:43:06.177Z,0
2016-08-27T04:43:31.886Z,0
2016-08-27T04:43:57.477Z,0
2016-08-27T04:44:23.356Z,0
2016-08-27T04:44:48.911Z,0
2016-08-27T04:45:14.501Z,0
2016-08-27T04:45:40.040Z,0
2016-08-27T04:46:05.614Z,0
2016-08-27T04:46:31.180Z,0
2016-08-27T04:46:56.754Z,0
2016-08-27T04:47:22.323Z,0
2016-08-27T04:47:47.885Z,0
2016-08-27T04:48:13.454Z,0
2016-08-27T04:48:39.016Z,0
2016-08-27T04:49:04.579Z,0
2016-08-27T04:49:30.128Z,0
2016-08-27T04:49:55.699Z,0
2016-08-27T04:50:21.266Z,0
2016-08-27T04:50:46.831Z,0
2016-08-27T04:51:12.431Z,0
2016-08-27T04:51:38.017Z,0
2016-08-27T04:52:03.575Z,0
2016-08-27T04:52:29.127Z,0
2016-08-27T04:52:54.695Z,0
2016-08-27T04:53:20.263Z,0
2016-08-27T04:53:45.855Z,0
2016-08-27T04:54:11.458Z,0
2016-08-27T04:54:37.026Z,0
2016-08-27T04:55:02.621Z,0
2016-08-27T04:55:28.158Z,0
2016-08-27T04:55:53.769Z,0
2016-08-27T04:56:19.313Z,0
2016-08-27T04:56:44.867Z,0
2016-08-27T04:57:10.525Z,0
2016-08-27T04:57:36.070Z,0
2016-08-27T04:58:01.624Z,4
2016-08-27T04:58:27.174Z,4
2016-08-27T04:58:52.744Z,4
2016-08-27T04:59:18.413Z,4
2016-08-27T04:59:43.963Z,4
2016-08-27T05:00:09.509Z,4
2016-08-27T05:00:35.052Z,4
2016-08-27T05:01:00.653Z,4
2016-08-27T05:01:26.195Z,4
2016-08-27T05:01:51.757Z,0
2016-08-27T05:02:17.340Z,0
2016-08-27T05:02:42.931Z,0
2016-08-27T05:03:08.472Z,0
2016-08-27T05:03:34.021Z,0
2016-08-27T05:03:59.611Z,0
2016-08-27T05:04:25.166Z,0
2016-08-27T05:04:50.722Z,0
2016-08-27T05:05:16.288Z,0
2016-08-27T05:05:41.844Z,0
2016-08-27T05:06:07.404Z,0
2016-08-27T05:06:32.965Z,0
2016-08-27T05:06:58.525Z,0
2016-08-27T05:07:24.087Z,0
2016-08-27T05:07:49.664Z,4
2016-08-27T05:08:15.246Z,4
2016-08-27T05:08:40.859Z,4
2016-08-27T05:09:06.418Z,4
2016-08-27T05:09:31.965Z,4
2016-08-27T05:09:57.550Z,4
2016-08-27T05:10:23.239Z,4
2016-08-27T05:10:48.795Z,4
2016-08-27T05:11:14.371Z,4
2016-08-27T05:11:39.936Z,4
2016-08-27T05:12:05.503Z,4
2016-08-27T05:12:31.061Z,4
2016-08-27T05:12:56.646Z,4
2016-08-27T05:13:22.217Z,4
2016-08-27T05:13:47.937Z,4
2016-08-27T05:14:13.482Z,4
2016-08-27T05:14:39.036Z,4
2016-08-27T05:15:04.611Z,4
2016-08-27T05:15:30.173Z,4
2016-08-27T05:15:55.793Z,4
2016-08-27T05:16:21.345Z,4
2016-08-27T05:16:46.881Z,4
2016-08-27T05:17:12.438Z,4
2016-08-27T05:17:38.096Z,4
2016-08-27T05:18:03.622Z,4
2016-08-27T05:18:29.159Z,4
2016-08-27T05:18:54.738Z,0
2016-08-27T05:19:20.290Z,0
2016-08-27T05:19:45.818Z,0
2016-08-27T05:20:11.365Z,0
2016-08-27T05:20:36.920Z,0
2016-08-27T05:21:02.494Z,0
2016-08-27T05:21:28.304Z,0
2016-08-27T05:21:53.890Z,4
2016-08-27T05:22:19.469Z,4
2016-08-27T05:22:45.064Z,4
2016-08-27T05:23:10.644Z,4
2016-08-27T05:23:36.207Z,4
2016-08-27T05:24:01.767Z,4
2016-08-27T05:24:27.343Z,4
2016-08-27T05:24:52.951Z,4
2016-08-27T05:25:18.528Z,4
2016-08-27T05:25:44.095Z,4
2016-08-27T05:26:09.662Z,4
2016-08-27T05:26:35.237Z,4
2016-08-27T05:27:00.795Z,4
2016-08-27T05:27:26.356Z,4
2016-08-27T05:27:52.030Z,4
2016-08-27T05:28:17.601Z,4
2016-08-27T05:28:43.155Z,4
2016-08-27T05:29:08.740Z,4
2016-08-27T05:29:34.274Z,4
2016-08-27T05:29:59.832Z,4
2016-08-27T05:30:25.387Z,4
2016-08-27T05:30:50.923Z,4
2016-08-27T05:31:16.544Z,4
2016-08-27T05:31:42.185Z,4
2016-08-27T05:32:07.756Z,8
2016-08-27T05:32:33.556Z,8
2016-08-27T05:32:59.094Z,8
2016-08-27T05:33:24.727Z,8
2016-08-27T05:33:50.331Z,8
2016-08-27T05:34:15.900Z,8
2016-08-27T05:34:41.463Z,4
2016-08-27T05:35:07.016Z,4
2016-08-27T05:35:32.602Z,4
2016-08-27T05:35:58.146Z,4
2016-08-27T05:36:23.911Z,4
2016-08-27T05:36:49.518Z,4
2016-08-27T05:37:15.069Z,4
2016-08-27T05:37:40.642Z,4
2016-08-27T05:38:06.197Z,4
2016-08-27T05:38:31.751Z,4
2016-08-27T05:38:57.337Z,4
2016-08-27T05:39:22.896Z,4
2016-08-27T05:39:48.449Z,4
2016-08-27T05:40:14.000Z,4
2016-08-27T05:40:39.565Z,4
2016-08-27T05:41:05.241Z,4
2016-08-27T05:41:30.786Z,4
2016-08-27T05:41:56.354Z,4
2016-08-27T05:42:21.900Z,4
2016-08-27T05:42:47.489Z,4
2016-08-27T05:43:13.036Z,4
2016-08-27T05:43:38.640Z,4
2016-08-27T05:44:04.193Z,8
2016-08-27T05:44:29.735Z,8
2016-08-27T05:44:55.269Z,8
2016-08-27T05:45:20.804Z,8
2016-08-27T05:45:46.430Z,8
2016-08-27T05:46:11.978Z,8
2016-08-27T05:46:37.548Z,8
2016-08-27T05:47:03.148Z,8
2016-08-27T05:47:28.823Z,8
2016-08-27T05:47:54.366Z,8
2016-08-27T05:48:19.883Z,8
2016-08-27T05:48:45.480Z,4
2016-08-27T05:49:11.021Z,4
2016-08-27T05:49:36.638Z,4
2016-08-27T05:50:02.328Z,4
2016-08-27T05:50:27.936Z,4
2016-08-27T05:50:53.528Z,4
2016-08-27T05:51:19.085Z,4
2016-08-27T05:51:44.739Z,4
2016-08-27T05:52:10.307Z,4
2016-08-27T05:52:36.008Z,216
2016-08-27T05:53:01.607Z,248
2016-08-27T05:53:27.157Z,264
2016-08-27T05:53:52.746Z,264
2016-08-27T05:54:18.364Z,232
2016-08-27T05:54:43.946Z,236
2016-08-27T05:55:09.512Z,228
2016-08-27T05:55:35.082Z,224
2016-08-27T05:56:00.748Z,236
2016-08-27T05:56:26.322Z,232
2016-08-27T05:56:51.889Z,228
2016-08-27T05:57:17.529Z,268
2016-08-27T05:57:43.108Z,256
2016-08-27T05:58:08.674Z,260
2016-08-27T05:58:34.237Z,260
2016-08-27T05:58:59.814Z,260
2016-08-27T05:59:25.387Z,264
2016-08-27T05:59:50.958Z,256
2016-08-27T06:00:16.559Z,260
2016-08-27T06:00:42.134Z,260
2016-08-27T06:01:46.348Z,260
2016-08-27T06:02:12.132Z,260
2016-08-27T06:02:37.711Z,264
2016-08-27T06:03:03.327Z,260
2016-08-27T06:03:29.007Z,248
2016-08-27T06:03:54.593Z,260
2016-08-27T06:04:20.178Z,264
2016-08-27T06:04:45.767Z,264
2016-08-27T06:05:11.315Z,264
2016-08-27T06:05:37.071Z,260
2016-08-27T06:06:02.651Z,268
2016-08-27T06:06:28.362Z,268
2016-08-27T06:06:53.920Z,264
2016-08-27T06:07:19.477Z,268
2016-08-27T06:07:45.117Z,264
2016-08-27T06:08:10.657Z,260
2016-08-27T06:08:36.226Z,264
2016-08-27T06:09:01.776Z,244
2016-08-27T06:09:27.344Z,260
2016-08-27T06:09:52.898Z,228
2016-08-27T06:10:18.507Z,196
2016-08-27T06:10:44.120Z,268
2016-08-27T06:11:09.673Z,248
2016-08-27T06:11:35.234Z,252
2016-08-27T06:12:00.829Z,268
2016-08-27T06:12:26.540Z,268
2016-08-27T06:12:52.258Z,268
2016-08-27T06:13:17.761Z,256
2016-08-27T06:13:43.361Z,272
2016-08-27T06:14:08.910Z,260
2016-08-27T06:14:34.608Z,272
2016-08-27T06:15:00.233Z,268
2016-08-27T06:15:25.810Z,272
2016-08-27T06:15:51.379Z,272
2016-08-27T06:16:16.949Z,272
2016-08-27T06:16:42.548Z,276
2016-08-27T06:17:08.113Z,272
2016-08-27T06:17:33.734Z,276
2016-08-27T06:17:59.388Z,272
2016-08-27T06:18:24.952Z,272
2016-08-27T06:18:50.526Z,276
2016-08-27T06:19:16.300Z,276
2016-08-27T06:19:41.879Z,276
2016-08-27T06:20:07.544Z,276
2016-08-27T06:20:33.162Z,276
2016-08-27T06:20:58.753Z,276
2016-08-27T06:21:24.315Z,276
2016-08-27T06:21:49.895Z,276
2016-08-27T06:22:15.460Z,276
2016-08-27T06:22:41.035Z,280
2016-08-27T06:23:06.640Z,276
2016-08-27T06:23:32.219Z,276
2016-08-27T06:23:57.796Z,276
2016-08-27T06:24:23.364Z,264
2016-08-27T06:24:49.187Z,276
2016-08-27T06:25:14.591Z,280
2016-08-27T06:25:40.166Z,280
2016-08-27T06:26:05.927Z,284
2016-08-27T06:26:31.542Z,272
2016-08-27T06:26:57.094Z,280
2016-08-27T06:27:22.646Z,280
2016-08-27T06:27:48.196Z,280
2016-08-27T06:28:13.741Z,280
2016-08-27T06:28:39.387Z,280
2016-08-27T06:29:05.237Z,280
2016-08-27T06:29:30.786Z,276
2016-08-27T06:29:56.360Z,276
2016-08-27T06:30:21.916Z,284
2016-08-27T06:30:47.500Z,280
2016-08-27T06:31:13.115Z,232
2016-08-27T06:31:38.668Z,272
2016-08-27T06:32:04.236Z,284
2016-08-27T06:32:29.880Z,284
2016-08-27T06:32:55.422Z,288
2016-08-27T06:33:20.997Z,292
2016-08-27T06:33:46.591Z,288
2016-08-27T06:34:12.181Z,288
2016-08-27T06:34:37.832Z,292
2016-08-27T06:35:03.388Z,292
2016-08-27T06:35:28.986Z,220
2016-08-27T06:35:54.611Z,292
2016-08-27T06:36:20.191Z,264
2016-08-27T06:36:45.788Z,232
2016-08-27T06:37:11.353Z,232
2016-08-27T06:37:36.926Z,232
2016-08-27T06:38:02.503Z,272
2016-08-27T06:39:26.260Z,244
2016-08-27T06:39:51.817Z,256
2016-08-27T06:40:17.384Z,232
2016-08-27T06:40:43.006Z,240
2016-08-27T06:41:08.508Z,228
2016-08-27T06:41:34.068Z,276
2016-08-27T06:41:59.655Z,212
2016-08-27T06:42:25.389Z,284
2016-08-27T06:42:50.795Z,220
2016-08-27T06:43:16.452Z,220
2016-08-27T06:43:42.038Z,220
2016-08-27T06:44:07.607Z,204
2016-08-27T06:44:33.171Z,224
2016-08-27T06:44:58.731Z,220
2016-08-27T06:45:24.371Z,220
2016-08-27T06:45:49.936Z,220
2016-08-27T06:46:15.410Z,204
2016-08-27T06:46:40.977Z,284
2016-08-27T06:47:06.661Z,280
2016-08-27T06:47:32.254Z,208
2016-08-27T06:47:57.829Z,224
2016-08-27T06:48:23.425Z,264
2016-08-27T06:48:48.965Z,244
2016-08-27T06:49:14.525Z,224
2016-08-27T06:49:40.235Z,228
2016-08-27T06:50:05.813Z,240
2016-08-27T06:50:31.356Z,208
2016-08-27T06:50:56.921Z,220
2016-08-27T06:51:22.508Z,268
2016-08-27T06:51:48.078Z,272
2016-08-27T06:52:13.642Z,68
2016-08-27T06:52:39.208Z,68
2016-08-27T06:53:04.816Z,72
2016-08-27T06:53:30.397Z,72
2016-08-27T06:53:55.977Z,72
2016-08-27T06:54:21.552Z,72
2016-08-27T06:54:47.197Z,76
2016-08-27T06:55:12.947Z,76
2016-08-27T06:55:38.506Z,72
2016-08-27T06:56:04.070Z,76
2016-08-27T06:56:29.808Z,72
2016-08-27T06:56:55.267Z,72
2016-08-27T06:57:20.865Z,72
2016-08-27T06:57:46.420Z,72
2016-08-27T06:58:12.020Z,72
2016-08-27T06:58:37.575Z,72
2016-08-27T06:59:03.136Z,72
2016-08-27T06:59:28.703Z,72
2016-08-27T07:00:31.914Z,72
2016-08-27T07:00:57.480Z,76
2016-08-27T07:01:23.034Z,72
2016-08-27T07:01:48.609Z,76
2016-08-27T07:02:14.195Z,76
2016-08-27T07:02:39.761Z,72
2016-08-27T07:03:05.332Z,72
2016-08-27T07:04:29.003Z,76
2016-08-27T07:04:54.560Z,76
2016-08-27T07:05:20.125Z,80
2016-08-27T07:05:45.823Z,80
2016-08-27T07:06:11.374Z,80
2016-08-27T07:08:23.284Z,76
2016-08-27T07:08:48.860Z,80
2016-08-27T07:09:14.419Z,76
2016-08-27T07:09:40.015Z,76
2016-08-27T07:10:05.743Z,76
2016-08-27T07:10:31.317Z,80
2016-08-27T07:10:56.942Z,84
2016-08-27T07:11:22.627Z,84
2016-08-27T07:12:36.643Z,84
2016-08-27T07:13:02.234Z,80
2016-08-27T07:13:27.792Z,88
2016-08-27T07:13:53.359Z,88
2016-08-27T07:14:19.666Z,88
2016-08-27T07:14:45.220Z,88
2016-08-27T07:15:10.802Z,88
2016-08-27T07:15:36.352Z,84
2016-08-27T07:16:01.916Z,88
2016-08-27T07:16:27.471Z,84
2016-08-27T07:16:53.093Z,84
2016-08-27T07:17:18.627Z,84
2016-08-27T07:17:44.176Z,84
2016-08-27T07:18:09.742Z,88
2016-08-27T07:18:35.313Z,88
2016-08-27T07:19:00.866Z,88
2016-08-27T07:19:26.455Z,88
2016-08-27T07:19:52.006Z,92
2016-08-27T07:20:17.562Z,96
2016-08-27T07:20:43.108Z,96
2016-08-27T07:21:08.667Z,100
2016-08-27T07:21:34.268Z,96
2016-08-27T07:21:59.867Z,96
2016-08-27T07:22:25.453Z,100
2016-08-27T07:22:51.028Z,96
2016-08-27T07:23:16.555Z,96
2016-08-27T07:23:42.130Z,96
2016-08-27T07:24:07.692Z,104
2016-08-27T07:24:33.246Z,104
2016-08-27T07:24:58.803Z,100
2016-08-27T07:25:24.366Z,100
2016-08-27T07:25:49.973Z,100
2016-08-27T07:26:15.534Z,100
2016-08-27T07:26:41.117Z,104
2016-08-27T07:27:06.706Z,104
2016-08-27T07:27:32.301Z,104
2016-08-27T07:27:57.888Z,108
2016-08-27T07:28:23.465Z,100
2016-08-27T07:28:49.047Z,100
2016-08-27T07:29:14.602Z,104
2016-08-27T07:29:40.176Z,104
2016-08-27T07:30:05.730Z,104
2016-08-27T07:30:31.295Z,104
2016-08-27T07:30:56.935Z,104
2016-08-27T07:31:22.525Z,100
2016-08-27T07:31:48.149Z,104
2016-08-27T07:32:13.716Z,100
2016-08-27T07:32:39.273Z,104
2016-08-27T07:33:04.853Z,104
2016-08-27T07:33:30.415Z,104
2016-08-27T07:33:55.967Z,104
2016-08-27T07:34:21.576Z,104
2016-08-27T07:34:47.127Z,104
2016-08-27T07:35:12.700Z,108
2016-08-27T07:35:38.251Z,108
2016-08-27T07:36:03.821Z,104
2016-08-27T07:36:29.407Z,108
2016-08-27T07:36:54.966Z,104
2016-08-27T07:37:20.532Z,108
2016-08-27T07:37:46.095Z,108
2016-08-27T07:38:11.774Z,108
2016-08-27T07:38:37.343Z,108
2016-08-27T07:39:02.923Z,108
2016-08-27T07:39:28.466Z,112
2016-08-27T07:39:54.073Z,112
2016-08-27T07:40:19.635Z,112
2016-08-27T07:40:45.189Z,112
2016-08-27T07:41:10.777Z,112
2016-08-27T07:41:36.340Z,112
2016-08-27T07:42:01.908Z,116
2016-08-27T07:42:27.491Z,116
2016-08-27T07:42:53.070Z,116
2016-08-27T07:43:18.791Z,116
2016-08-27T07:43:44.380Z,120
2016-08-27T07:44:09.938Z,116
2016-08-27T07:44:35.524Z,116
2016-08-27T07:45:01.119Z,120
2016-08-27T07:45:26.711Z,116
2016-08-27T07:45:52.270Z,116
2016-08-27T07:46:17.848Z,116
2016-08-27T07:46:43.420Z,116
2016-08-27T07:47:08.995Z,120
2016-08-27T07:47:34.589Z,116
2016-08-27T07:48:00.180Z,112
2016-08-27T07:48:25.754Z,112
2016-08-27T07:48:51.317Z,116
2016-08-27T07:49:16.898Z,112
2016-08-27T07:49:42.508Z,112
2016-08-27T07:50:08.069Z,116
2016-08-27T07:50:33.649Z,116
2016-08-27T07:50:59.272Z,116
2016-08-27T07:51:24.847Z,120
2016-08-27T07:51:50.434Z,116
2016-08-27T07:52:15.997Z,112
2016-08-27T07:52:41.641Z,116
2016-08-27T07:53:07.204Z,108
2016-08-27T07:53:32.896Z,108
2016-08-27T07:53:58.447Z,108
2016-08-27T07:54:24.186Z,112
2016-08-27T07:54:49.777Z,108
2016-08-27T07:55:15.342Z,108
2016-08-27T07:55:40.917Z,108
2016-08-27T07:56:06.492Z,108
2016-08-27T07:56:32.049Z,112
2016-08-27T07:56:57.623Z,112
2016-08-27T07:57:23.161Z,116
2016-08-27T07:57:48.768Z,116
2016-08-27T07:58:14.369Z,116
2016-08-27T07:58:39.950Z,116
2016-08-27T07:59:05.514Z,120
2016-08-27T07:59:31.085Z,120
2016-08-27T07:59:56.686Z,120
2016-08-27T08:00:22.239Z,120
2016-08-27T08:01:25.495Z,120
2016-08-27T08:01:51.066Z,120
2016-08-27T08:02:16.667Z,124
2016-08-27T08:02:42.237Z,124
2016-08-27T08:03:07.786Z,124
2016-08-27T08:03:33.401Z,124
2016-08-27T08:03:58.987Z,120
2016-08-27T08:04:24.548Z,124
2016-08-27T08:04:50.130Z,124
2016-08-27T08:05:15.700Z,124
2016-08-27T08:05:41.278Z,124
2016-08-27T08:06:06.844Z,124
2016-08-27T08:06:32.483Z,124
2016-08-27T08:06:58.037Z,128
2016-08-27T08:07:23.607Z,124
2016-08-27T08:07:49.193Z,124
2016-08-27T08:08:14.749Z,124
2016-08-27T08:08:40.352Z,128
2016-08-27T08:09:05.906Z,124
2016-08-27T08:09:31.483Z,124
2016-08-27T08:09:57.046Z,120
2016-08-27T08:10:22.594Z,124
2016-08-27T08:10:48.157Z,120
2016-08-27T08:11:13.712Z,120
2016-08-27T08:11:39.271Z,120
2016-08-27T08:12:04.846Z,120
2016-08-27T08:12:30.414Z,120
2016-08-27T08:12:56.014Z,116
2016-08-27T08:13:21.559Z,116
2016-08-27T08:13:47.149Z,112
2016-08-27T08:14:12.748Z,116
2016-08-27T08:14:38.367Z,112
2016-08-27T08:15:03.938Z,112
2016-08-27T08:15:29.598Z,112
2016-08-27T08:15:55.185Z,116
2016-08-27T08:16:20.762Z,116
2016-08-27T08:16:46.345Z,116
2016-08-27T08:17:11.926Z,116
2016-08-27T08:17:37.476Z,120
2016-08-27T08:18:03.025Z,120
2016-08-27T08:18:28.589Z,120
2016-08-27T08:18:54.164Z,120
2016-08-27T08:19:19.723Z,124
2016-08-27T08:19:45.307Z,120
2016-08-27T08:20:10.889Z,124
2016-08-27T08:20:36.453Z,120
2016-08-27T08:21:02.046Z,124
2016-08-27T08:21:27.605Z,124
2016-08-27T08:21:53.227Z,120
2016-08-27T08:22:18.765Z,124
2016-08-27T08:22:44.344Z,120
2016-08-27T08:24:08.139Z,120
2016-08-27T08:24:33.695Z,120
2016-08-27T08:24:59.238Z,120
2016-08-27T08:25:24.864Z,120
2016-08-27T08:25:50.462Z,120
2016-08-27T08:26:16.072Z,116
2016-08-27T08:26:41.613Z,116
2016-08-27T08:27:07.308Z,116
2016-08-27T08:27:32.882Z,120
2016-08-27T08:27:58.423Z,116
2016-08-27T08:28:24.032Z,120
2016-08-27T08:28:49.563Z,124
2016-08-27T08:29:15.107Z,124
2016-08-27T08:29:40.677Z,124
2016-08-27T08:30:06.240Z,128
2016-08-27T08:30:31.779Z,128
2016-08-27T08:30:57.349Z,128
2016-08-27T08:31:22.890Z,132
2016-08-27T08:31:48.444Z,136
2016-08-27T08:32:13.983Z,136
2016-08-27T08:32:39.791Z,132
2016-08-27T08:33:05.350Z,136
2016-08-27T08:33:30.979Z,136
2016-08-27T08:33:56.537Z,136
2016-08-27T08:34:22.083Z,136
2016-08-27T08:34:47.638Z,136
2016-08-27T08:35:13.216Z,140
2016-08-27T08:35:38.780Z,140
2016-08-27T08:36:04.338Z,140
2016-08-27T08:36:29.869Z,144
2016-08-27T08:36:55.434Z,148
2016-08-27T08:37:21.051Z,148
2016-08-27T08:37:46.585Z,148
2016-08-27T08:38:12.151Z,148
2016-08-27T08:38:37.708Z,148
2016-08-27T08:39:03.246Z,148
2016-08-27T08:39:28.832Z,148
2016-08-27T08:39:54.380Z,148
2016-08-27T08:40:19.912Z,152
2016-08-27T08:40:45.447Z,152
2016-08-27T08:41:10.990Z,152
2016-08-27T08:41:36.545Z,148
2016-08-27T08:42:02.103Z,148
2016-08-27T08:42:27.670Z,148
2016-08-27T08:42:53.191Z,148
2016-08-27T08:43:18.732Z,148
2016-08-27T08:43:44.287Z,148
2016-08-27T08:44:09.920Z,148
2016-08-27T08:44:35.488Z,152
2016-08-27T08:45:01.048Z,152
2016-08-27T08:45:26.625Z,152
2016-08-27T08:45:52.169Z,152
2016-08-27T08:46:17.715Z,152
2016-08-27T08:46:43.264Z,152
2016-08-27T08:47:08.795Z,148
2016-08-27T08:47:34.344Z,152
2016-08-27T08:47:59.910Z,152
2016-08-27T08:48:25.474Z,152
2016-08-27T08:48:51.043Z,148
2016-08-27T08:49:16.657Z,148
2016-08-27T08:49:42.328Z,144
2016-08-27T08:50:07.871Z,144
2016-08-27T08:51:26.422Z,136
2016-08-27T08:51:51.988Z,136
2016-08-27T08:52:17.550Z,136
2016-08-27T08:52:43.152Z,136
2016-08-27T08:53:08.715Z,132
2016-08-27T08:53:34.267Z,136
2016-08-27T08:53:59.820Z,136
2016-08-27T08:54:25.392Z,136
2016-08-27T08:54:50.981Z,136
2016-08-27T08:55:16.553Z,132
2016-08-27T08:55:42.203Z,132
2016-08-27T08:56:07.764Z,136
2016-08-27T08:56:33.440Z,132
2016-08-27T08:56:59.110Z,128
2016-08-27T08:57:24.808Z,128
2016-08-27T08:57:50.382Z,132
2016-08-27T08:58:15.924Z,132
2016-08-27T08:58:41.479Z,136
2016-08-27T08:59:07.056Z,128
2016-08-27T08:59:32.595Z,128
2016-08-27T08:59:58.156Z,128
2016-08-27T09:00:23.686Z,312
2016-08-27T09:00:49.360Z,340
2016-08-27T09:01:14.902Z,340
2016-08-27T09:01:40.484Z,316
2016-08-27T09:02:06.058Z,340
2016-08-27T09:02:31.621Z,236
2016-08-27T09:02:57.178Z,340
2016-08-27T09:03:22.755Z,304
2016-08-27T09:03:48.321Z,208
2016-08-27T09:04:13.921Z,240
2016-08-27T09:04:39.471Z,236
2016-08-27T09:05:05.044Z,204
2016-08-27T09:05:30.619Z,284
2016-08-27T09:05:56.169Z,284
2016-08-27T09:06:21.745Z,288
2016-08-27T09:06:47.318Z,284
2016-08-27T09:07:12.885Z,284
2016-08-27T09:07:38.428Z,284
2016-08-27T09:08:04.115Z,288
2016-08-27T09:08:29.586Z,284
2016-08-27T09:08:55.137Z,288
2016-08-27T09:09:20.696Z,288
2016-08-27T09:09:46.272Z,288
2016-08-27T09:10:11.926Z,288
2016-08-27T09:10:37.537Z,288
2016-08-27T09:11:03.129Z,288
2016-08-27T09:11:28.671Z,292
2016-08-27T09:11:54.240Z,292
2016-08-27T09:12:19.808Z,248
2016-08-27T09:12:45.426Z,220
2016-08-27T09:13:10.982Z,300
2016-08-27T09:13:36.633Z,296
2016-08-27T09:14:02.328Z,296
2016-08-27T09:14:27.900Z,300
2016-08-27T09:15:36.196Z,304
2016-08-27T09:16:01.767Z,304
2016-08-27T09:16:27.337Z,300
2016-08-27T09:16:52.896Z,244
2016-08-27T09:17:18.459Z,240
2016-08-27T09:17:43.994Z,300
2016-08-27T09:18:09.576Z,300
2016-08-27T09:18:35.188Z,304
2016-08-27T09:19:00.767Z,304
2016-08-27T09:19:26.354Z,304
2016-08-27T09:19:51.901Z,300
2016-08-27T09:20:17.468Z,300
2016-08-27T09:20:43.043Z,300
2016-08-27T09:21:08.603Z,300
2016-08-27T09:21:34.160Z,244
2016-08-27T09:21:59.737Z,256
2016-08-27T09:22:25.307Z,244
2016-08-27T09:22:51.144Z,248
2016-08-27T09:23:16.708Z,232
2016-08-27T09:24:30.286Z,248
2016-08-27T09:24:55.887Z,252
2016-08-27T09:25:21.452Z,300
2016-08-27T09:25:47.110Z,244
2016-08-27T09:26:12.676Z,240
2016-08-27T09:26:38.236Z,284
2016-08-27T09:27:03.794Z,240
2016-08-27T09:27:29.370Z,284
2016-08-27T09:27:54.947Z,244
2016-08-27T09:28:20.674Z,184
2016-08-27T09:28:46.269Z,240
2016-08-27T09:29:12.431Z,228
2016-08-27T09:29:38.149Z,232
2016-08-27T09:30:03.705Z,240
2016-08-27T09:30:29.283Z,224
2016-08-27T09:30:54.843Z,244
2016-08-27T09:31:20.476Z,240
2016-08-27T09:31:46.099Z,256
2016-08-27T09:32:11.655Z,244
2016-08-27T09:32:37.222Z,240
2016-08-27T09:33:02.816Z,188
2016-08-27T09:33:28.378Z,184
2016-08-27T09:33:53.937Z,244
2016-08-27T09:34:19.522Z,300
2016-08-27T09:34:45.093Z,296
2016-08-27T09:35:10.641Z,296
2016-08-27T09:35:36.287Z,296
2016-08-27T09:36:01.893Z,296
2016-08-27T09:37:25.608Z,292
2016-08-27T09:38:34.570Z,240
2016-08-27T09:39:00.075Z,248
2016-08-27T09:39:25.630Z,236
2016-08-27T09:39:51.789Z,252
2016-08-27T09:40:17.406Z,248
2016-08-27T09:40:43.086Z,244
2016-08-27T09:41:08.689Z,236
2016-08-27T09:41:34.231Z,212
2016-08-27T09:41:59.792Z,244
2016-08-27T09:42:25.379Z,240
2016-08-27T09:42:51.592Z,180
2016-08-27T09:43:17.149Z,224
2016-08-27T09:43:42.704Z,180
2016-08-27T09:44:08.298Z,176
2016-08-27T09:44:33.865Z,256
2016-08-27T09:44:59.529Z,244
2016-08-27T09:45:25.091Z,308
2016-08-27T09:45:50.663Z,248
2016-08-27T09:46:16.382Z,236
2016-08-27T09:46:41.953Z,240
2016-08-27T09:47:07.528Z,252
2016-08-27T09:47:33.158Z,248
2016-08-27T09:47:58.713Z,276
2016-08-27T09:48:24.262Z,248
2016-08-27T09:48:49.852Z,244
2016-08-27T09:49:15.413Z,244
2016-08-27T09:49:40.987Z,168
2016-08-27T09:50:06.587Z,304
2016-08-27T09:50:32.178Z,328
2016-08-27T09:50:57.728Z,392
2016-08-27T09:51:23.299Z,392
2016-08-27T09:51:48.855Z,392
2016-08-27T09:52:14.423Z,392
2016-08-27T09:52:39.998Z,396
2016-08-27T09:53:05.592Z,392
2016-08-27T09:53:31.152Z,400
2016-08-27T09:53:56.726Z,404
2016-08-27T09:54:22.292Z,400
2016-08-27T09:54:47.916Z,408
2016-08-27T09:55:13.493Z,408
2016-08-27T09:55:39.054Z,412
2016-08-27T09:56:04.647Z,412
2016-08-27T09:56:30.207Z,416
2016-08-27T09:56:55.829Z,412
2016-08-27T09:57:21.418Z,412
2016-08-27T09:57:47.088Z,412
2016-08-27T09:58:12.654Z,408
2016-08-27T09:58:38.221Z,400
2016-08-27T09:59:03.794Z,400
2016-08-27T09:59:29.353Z,396
2016-08-27T09:59:54.939Z,396
2016-08-27T10:00:20.529Z,388
2016-08-27T10:00:46.110Z,392
2016-08-27T10:01:11.698Z,388
2016-08-27T10:01:37.289Z,384
2016-08-27T10:02:02.896Z,388
2016-08-27T10:03:26.555Z,380
2016-08-27T10:03:52.126Z,384
2016-08-27T10:04:17.694Z,380
2016-08-27T10:04:43.248Z,384
2016-08-27T10:05:08.844Z,384
2016-08-27T10:05:34.468Z,376
2016-08-27T10:06:00.047Z,380
2016-08-27T10:06:25.614Z,380
2016-08-27T10:06:51.180Z,380
2016-08-27T10:07:16.721Z,380
2016-08-27T10:07:42.278Z,380
2016-08-27T10:08:07.854Z,252
2016-08-27T10:08:33.389Z,256
2016-08-27T10:08:59.849Z,280
2016-08-27T10:09:25.390Z,272
2016-08-27T10:09:50.955Z,280
2016-08-27T10:10:16.503Z,256
2016-08-27T10:10:42.070Z,244
2016-08-27T10:11:07.670Z,252
2016-08-27T10:11:33.247Z,248
2016-08-27T10:11:58.817Z,256
2016-08-27T10:12:24.385Z,244
2016-08-27T10:12:49.953Z,252
2016-08-27T10:13:15.583Z,248
2016-08-27T10:13:41.139Z,248
2016-08-27T10:14:06.692Z,256
2016-08-27T10:14:32.366Z,244
2016-08-27T10:14:57.934Z,248
2016-08-27T10:15:23.473Z,248